Terminal Aerodrome Forecast
Issued by NWS

Home | Current Version | Previous Version | Text Only | Print | Product List | Glossary On
Versions: 1 2 3 4 5 6 7 8 9 10 11 12 13 14
000
FTUS46 KSTO 241700
TAFSMF
TAF
KSMF 241736Z 2418/2518 17007KT P6SM SKC
     FM250100 17010G17KT P6SM FEW250
     FM250500 17008KT P6SM SCT250=

USA.gov is the U.S. government's official web portal to all federal, state and local government web resources and services.